createdAt,value
2018-08-17T00:01:58.239Z,98418.99
2018-08-17T00:04:26.387Z,98417.98
2018-08-17T00:06:54.725Z,98421.27
2018-08-17T00:09:22.835Z,98420.39
2018-08-17T00:11:51.038Z,98415.18
2018-08-17T00:14:20.083Z,98413.58
2018-08-17T00:16:48.557Z,98408.22
2018-08-17T00:19:16.958Z,98397.48
2018-08-17T00:21:45.167Z,98403.68
2018-08-17T00:24:13.269Z,98404.03
2018-08-17T00:26:42.574Z,98404.91
2018-08-17T00:29:10.769Z,98406.70
2018-08-17T00:31:39.427Z,98396.73
2018-08-17T00:34:07.825Z,98393.95
2018-08-17T00:36:35.978Z,98396.65
2018-08-17T00:39:05.943Z,98393.42
2018-08-17T00:41:34.444Z,98396.38
2018-08-17T00:44:03.863Z,98396.94
2018-08-17T00:46:32.047Z,98392.48
2018-08-17T00:49:00.187Z,98393.89
2018-08-17T00:51:28.376Z,98397.61
2018-08-17T00:53:56.625Z,98406.64
2018-08-17T00:56:24.848Z,98397.61
2018-08-17T00:58:53.144Z,98403.33
2018-08-17T01:01:21.283Z,98405.83
2018-08-17T01:03:49.396Z,98402.20
2018-08-17T01:06:17.499Z,98403.17
2018-08-17T01:08:45.604Z,98400.22
2018-08-17T01:11:13.964Z,98395.27
2018-08-17T01:13:42.503Z,98394.93
2018-08-17T01:16:10.644Z,98396.94
2018-08-17T01:18:38.747Z,98391.33
2018-08-17T01:21:07.983Z,98392.63
2018-08-17T01:23:36.192Z,98389.66
2018-08-17T01:26:04.328Z,98383.45
2018-08-17T01:28:32.480Z,98389.56
2018-08-17T01:31:00.640Z,98388.17
2018-08-17T01:33:28.750Z,98388.79
2018-08-17T01:35:56.863Z,98386.84
2018-08-17T01:38:25.487Z,98388.79
2018-08-17T01:40:53.767Z,98383.55
2018-08-17T01:43:21.952Z,98383.03
2018-08-17T01:45:50.067Z,98395.87
2018-08-17T01:48:18.291Z,98390.63
2018-08-17T01:50:46.415Z,98390.13
2018-08-17T01:53:14.527Z,98389.66
2018-08-17T01:55:42.623Z,98390.55
2018-08-17T01:58:12.593Z,98389.94
2018-08-17T02:00:40.725Z,98387.80
2018-08-17T02:03:09.936Z,98382.84
2018-08-17T02:05:38.076Z,98384.84
2018-08-17T02:08:06.211Z,98385.83
2018-08-17T02:10:34.375Z,98381.55
2018-08-17T02:13:02.900Z,98381.98
2018-08-17T02:15:31.120Z,98384.80
2018-08-17T02:17:59.365Z,98381.86
2018-08-17T02:20:27.476Z,98387.86
2018-08-17T02:45:08.709Z,98380.89
2018-08-17T02:47:36.897Z,98381.23
2018-08-17T02:50:05.555Z,98379.09
2018-08-17T02:52:33.774Z,98373.31
2018-08-17T02:55:02.727Z,98369.94
2018-08-17T02:57:30.883Z,98364.00
2018-08-17T02:59:59.388Z,98362.09
2018-08-17T03:02:27.496Z,98364.34
2018-08-17T03:04:56.379Z,98356.35
2018-08-17T03:07:25.116Z,98362.05
2018-08-17T03:09:53.236Z,98362.83
2018-08-17T03:12:21.750Z,98367.16
2018-08-17T03:14:50.552Z,98372.70
2018-08-17T03:17:18.679Z,98369.66
2018-08-17T03:19:46.790Z,98374.66
2018-08-17T03:22:15.784Z,98372.58
2018-08-17T03:24:44.479Z,98374.69
2018-08-17T03:27:12.610Z,98380.32
2018-08-17T03:29:40.797Z,98376.64
2018-08-17T03:32:09.167Z,98378.49
2018-08-17T03:39:41.960Z,98384.13
2018-08-17T03:51:21.009Z,98380.02
2018-08-17T03:53:51.166Z,98382.28
2018-08-17T03:56:19.721Z,98382.56
2018-08-17T03:58:50.192Z,98388.84
2018-08-17T04:01:18.366Z,98387.33
2018-08-17T04:03:46.514Z,98388.09
2018-08-17T04:06:14.709Z,98391.11
2018-08-17T04:17:59.593Z,98405.02
2018-08-17T04:20:27.777Z,98398.84
2018-08-17T04:32:05.462Z,98401.94
2018-08-17T04:38:40.913Z,98403.42
2018-08-17T04:41:09.048Z,98405.46
2018-08-17T04:43:37.860Z,98404.97
2018-08-17T04:49:09.697Z,98411.25
2018-08-17T04:51:37.949Z,98410.48
2018-08-17T04:54:06.780Z,98411.06
2018-08-17T04:56:35.000Z,98415.27
2018-08-17T04:59:03.191Z,98423.10
2018-08-17T05:01:31.373Z,98425.52
2018-08-17T05:03:59.735Z,98431.52
2018-08-17T05:06:27.902Z,98431.13
2018-08-17T05:08:56.138Z,98441.06
2018-08-17T05:11:24.464Z,98437.34
2018-08-17T05:13:54.832Z,98435.79
2018-08-17T05:16:23.396Z,98426.33
2018-08-17T05:18:51.741Z,98432.11
2018-08-17T05:21:19.914Z,98431.19
2018-08-17T05:23:48.144Z,98433.31
2018-08-17T05:26:16.327Z,98432.70
2018-08-17T05:28:44.720Z,98434.40
2018-08-17T05:31:12.972Z,98435.41
2018-08-17T05:33:41.233Z,98436.13
2018-08-17T05:36:09.574Z,98433.70
2018-08-17T05:38:37.714Z,98431.67
2018-08-17T05:41:06.145Z,98442.45
2018-08-17T05:43:35.097Z,98441.63
2018-08-17T05:46:03.377Z,98444.25
2018-08-17T05:48:31.567Z,98441.94
2018-08-17T05:50:59.703Z,98437.30
2018-08-17T05:53:27.807Z,98440.69
2018-08-17T05:55:55.921Z,98437.97
2018-08-17T05:58:24.283Z,98443.05
2018-08-17T06:00:52.719Z,98439.84
2018-08-17T06:03:20.844Z,98444.56
2018-08-17T06:05:49.675Z,98444.14
2018-08-17T06:08:17.819Z,98444.69
2018-08-17T06:10:46.017Z,98448.67
2018-08-17T06:13:14.142Z,98445.06
2018-08-17T06:15:42.352Z,98449.08
2018-08-17T06:18:10.745Z,98459.45
2018-08-17T06:20:38.944Z,98457.06
2018-08-17T06:23:07.094Z,98463.27
2018-08-17T06:25:35.571Z,98465.33
2018-08-17T06:28:03.726Z,98463.25
2018-08-17T06:30:31.937Z,98475.92
2018-08-17T06:33:00.096Z,98472.42
2018-08-17T06:35:28.457Z,98477.45
2018-08-17T06:37:56.685Z,98479.08
2018-08-17T06:40:25.852Z,98471.49
2018-08-17T06:42:53.996Z,98481.80
2018-08-17T06:45:22.138Z,98477.66
2018-08-17T06:47:50.347Z,98477.48
2018-08-17T06:50:19.452Z,98475.59
2018-08-17T06:52:47.588Z,98471.08
2018-08-17T06:55:15.816Z,98477.77
2018-08-17T06:57:44.624Z,98478.98
2018-08-17T07:00:14.910Z,98483.14
2018-08-17T07:02:44.259Z,98487.25
2018-08-17T07:05:12.585Z,98491.20
2018-08-17T07:07:40.776Z,98491.97
2018-08-17T07:10:10.433Z,98495.82
2018-08-17T07:12:43.133Z,98492.18
2018-08-17T07:15:11.327Z,98490.11
2018-08-17T07:17:39.717Z,98493.55
2018-08-17T07:20:09.620Z,98500.25
2018-08-17T07:22:37.797Z,98501.86
2018-08-17T07:25:07.289Z,98497.06
2018-08-17T07:27:35.682Z,98496.23
2018-08-17T07:30:03.796Z,98496.88
2018-08-17T07:32:31.939Z,98491.55
2018-08-17T07:35:00.200Z,98495.95
2018-08-17T07:37:28.348Z,98500.52
2018-08-17T07:39:57.128Z,98503.94
2018-08-17T07:42:25.249Z,98507.02
2018-08-17T07:44:53.410Z,98505.41
2018-08-17T07:47:21.535Z,98503.09
2018-08-17T07:49:49.624Z,98499.60
2018-08-17T07:52:18.150Z,98504.66
2018-08-17T07:54:46.260Z,98507.03
2018-08-17T07:57:15.479Z,98513.02
2018-08-17T07:59:43.745Z,98512.08
2018-08-17T08:02:11.931Z,98516.30
2018-08-17T08:04:40.042Z,98517.23
2018-08-17T08:07:08.180Z,98514.45
2018-08-17T08:09:36.664Z,98515.88
2018-08-17T08:12:04.796Z,98516.50
2018-08-17T08:14:33.017Z,98524.43
2018-08-17T08:17:01.166Z,98520.30
2018-08-17T08:19:29.269Z,98523.46
2018-08-17T08:21:58.455Z,98518.98
2018-08-17T08:24:26.904Z,98523.25
2018-08-17T08:26:55.008Z,98520.34
2018-08-17T08:29:23.336Z,98523.53
2018-08-17T08:31:51.547Z,98524.02
2018-08-17T08:34:19.717Z,98520.82
2018-08-17T08:36:47.837Z,98522.17
2018-08-17T08:39:16.232Z,98528.88
2018-08-17T08:41:44.373Z,98530.70
2018-08-17T08:44:12.612Z,98534.06
2018-08-17T08:46:40.758Z,98534.74
2018-08-17T08:49:09.435Z,98543.91
2018-08-17T08:51:37.531Z,98542.82
2018-08-17T08:54:05.704Z,98550.08
2018-08-17T08:56:33.818Z,98551.02
2018-08-17T08:59:01.945Z,98547.63
2018-08-17T09:01:30.240Z,98547.44
2018-08-17T09:03:59.556Z,98543.73
2018-08-17T09:06:27.689Z,98557.69
2018-08-17T09:08:56.003Z,98552.06
2018-08-17T09:11:31.054Z,98557.77
2018-08-17T09:13:59.838Z,98555.07
2018-08-17T09:16:27.952Z,98551.05
2018-08-17T09:18:56.062Z,98549.67
2018-08-17T09:21:24.172Z,98555.00
2018-08-17T09:23:52.297Z,98556.44
2018-08-17T09:26:20.504Z,98550.05
2018-08-17T09:28:48.653Z,98551.66
2018-08-17T09:31:16.800Z,98547.92
2018-08-17T09:33:44.976Z,98549.59
2018-08-17T09:36:13.111Z,98550.36
2018-08-17T09:38:41.336Z,98546.45
2018-08-17T09:41:09.473Z,98543.47
2018-08-17T09:43:37.620Z,98541.50
2018-08-17T09:46:06.274Z,98542.97
2018-08-17T09:48:35.607Z,98549.36
2018-08-17T09:51:04.043Z,98537.81
2018-08-17T09:53:32.220Z,98540.59
2018-08-17T09:56:00.968Z,98536.34
2018-08-17T09:58:29.093Z,98537.16
2018-08-17T10:01:02.697Z,98537.91
2018-08-17T10:03:36.653Z,98533.06
2018-08-17T10:06:10.189Z,98537.41
2018-08-17T10:08:43.836Z,98541.30
2018-08-17T10:11:12.701Z,98533.07
2018-08-17T10:13:40.868Z,98534.90
2018-08-17T10:16:09.298Z,98531.52
2018-08-17T10:18:43.263Z,98536.63
2018-08-17T10:21:12.634Z,98533.80
2018-08-17T10:23:40.700Z,98528.28
2018-08-17T10:26:09.013Z,98533.38
2018-08-17T10:28:37.252Z,98526.53
2018-08-17T10:31:05.676Z,98526.80
2018-08-17T10:33:33.881Z,98539.87
2018-08-17T10:36:08.890Z,98538.24
2018-08-17T10:38:37.048Z,98538.88
2018-08-17T10:41:05.165Z,98541.80
2018-08-17T10:43:33.291Z,98543.39
2018-08-17T10:46:01.423Z,98533.67
2018-08-17T10:48:29.512Z,98535.66
2018-08-17T10:50:57.639Z,98546.34
2018-08-17T10:53:30.825Z,98538.93
2018-08-17T10:55:58.958Z,98538.22
2018-08-17T10:58:27.070Z,98531.70
2018-08-17T11:00:55.196Z,98537.75
2018-08-17T11:03:23.651Z,98531.80
2018-08-17T11:05:51.915Z,98532.02
2018-08-17T11:08:20.377Z,98522.59
2018-08-17T11:10:48.580Z,98529.97
2018-08-17T11:13:16.782Z,98528.77
2018-08-17T11:15:44.929Z,98530.89
2018-08-17T11:18:13.051Z,98520.36
2018-08-17T11:20:41.218Z,98516.87
2018-08-17T11:23:09.327Z,98516.45
2018-08-17T11:25:37.445Z,98508.41
2018-08-17T11:28:05.528Z,98514.86
2018-08-17T11:30:34.085Z,98513.87
2018-08-17T11:33:02.266Z,98521.39
2018-08-17T11:35:30.716Z,98519.99
2018-08-17T11:37:58.890Z,98514.64
2018-08-17T11:40:27.023Z,98518.70
2018-08-17T11:42:55.168Z,98519.12
2018-08-17T11:45:24.524Z,98508.65
2018-08-17T11:47:53.329Z,98520.73
2018-08-17T11:50:22.922Z,98513.69
2018-08-17T11:52:54.080Z,98511.77
2018-08-17T11:55:22.888Z,98513.82
2018-08-17T11:57:51.157Z,98511.56
2018-08-17T12:00:19.363Z,98512.46
2018-08-17T12:02:47.807Z,98507.11
2018-08-17T12:05:22.783Z,98501.32
2018-08-17T12:07:50.882Z,98494.59
2018-08-17T12:10:19.284Z,98496.27
2018-08-17T12:12:47.730Z,98506.02
2018-08-17T12:15:16.263Z,98501.95
2018-08-17T12:17:44.439Z,98504.17
2018-08-17T12:20:12.756Z,98501.44
2018-08-17T12:22:40.971Z,98501.58
2018-08-17T12:25:10.077Z,98499.46
2018-08-17T12:27:38.200Z,98489.86
2018-08-17T12:30:07.732Z,98491.70
2018-08-17T12:32:36.589Z,98498.73
2018-08-17T12:35:04.655Z,98490.19
2018-08-17T12:37:32.795Z,98488.12
2018-08-17T12:40:01.244Z,98480.84
2018-08-17T12:42:29.315Z,98485.10
2018-08-17T12:45:02.633Z,98486.62
2018-08-17T12:47:31.449Z,98489.58
2018-08-17T12:49:59.540Z,98485.26
2018-08-17T12:52:27.992Z,98483.17
2018-08-17T12:54:56.022Z,98483.67
2018-08-17T12:57:28.603Z,98486.88
2018-08-17T12:59:57.056Z,98483.17
2018-08-17T13:02:25.168Z,98483.39
2018-08-17T13:04:53.264Z,98474.61
2018-08-17T13:07:21.404Z,98478.06
2018-08-17T13:09:55.595Z,98473.84
2018-08-17T13:12:23.952Z,98472.77
2018-08-17T13:14:52.230Z,98480.70
2018-08-17T13:17:20.431Z,98486.45
2018-08-17T13:19:48.548Z,98481.30
2018-08-17T13:22:16.737Z,98481.48
2018-08-17T13:24:44.910Z,98480.60
2018-08-17T13:27:13.051Z,98483.41
2018-08-17T13:29:41.666Z,98481.20
2018-08-17T13:32:09.870Z,98479.95
2018-08-17T13:34:38.532Z,98481.71
2018-08-17T13:37:06.813Z,98483.25
2018-08-17T13:39:35.313Z,98486.38
2018-08-17T13:42:03.585Z,98471.23
2018-08-17T13:44:31.745Z,98478.14
2018-08-17T13:46:59.868Z,98473.28
2018-08-17T13:49:27.978Z,98473.09
2018-08-17T13:51:56.084Z,98481.55
2018-08-17T13:54:24.258Z,98476.93
2018-08-17T13:56:52.650Z,98469.27
2018-08-17T13:59:20.759Z,98457.58
2018-08-17T14:01:49.003Z,98460.20
2018-08-17T14:04:17.110Z,98459.38
2018-08-17T14:06:45.563Z,98458.98
2018-08-17T14:09:13.672Z,98448.19
2018-08-17T14:11:41.790Z,98449.57
2018-08-17T14:14:10.322Z,98450.12
2018-08-17T14:16:38.424Z,98450.12
2018-08-17T14:19:06.917Z,98454.13
2018-08-17T14:21:35.058Z,98460.48
2018-08-17T14:24:03.629Z,98454.81
2018-08-17T14:26:32.011Z,98457.80
2018-08-17T14:29:00.973Z,98467.54
2018-08-17T14:31:29.099Z,98463.96
2018-08-17T14:33:57.254Z,98467.50
2018-08-17T14:36:25.365Z,98471.79
2018-08-17T14:38:53.492Z,98472.22
2018-08-17T14:41:21.946Z,98471.89
2018-08-17T14:43:50.052Z,98474.34
2018-08-17T14:46:18.233Z,98482.71
2018-08-17T14:48:46.299Z,98475.19
2018-08-17T14:51:14.419Z,98478.48
2018-08-17T14:53:42.631Z,98480.98
2018-08-17T14:56:11.903Z,98476.39
2018-08-17T14:58:40.106Z,98474.73
2018-08-17T15:01:08.616Z,98479.91
2018-08-17T15:03:37.197Z,98471.94
2018-08-17T15:06:05.364Z,98482.22
2018-08-17T15:08:33.473Z,98475.81
2018-08-17T15:11:01.901Z,98473.31
2018-08-17T15:13:30.136Z,98476.44
2018-08-17T15:15:58.254Z,98477.30
2018-08-17T15:18:26.380Z,98480.02
2018-08-17T15:20:55.200Z,98471.88
2018-08-17T15:23:23.448Z,98473.54
2018-08-17T15:25:51.559Z,98466.80
2018-08-17T15:28:20.586Z,98472.05
2018-08-17T15:30:49.115Z,98462.31
2018-08-17T15:33:17.270Z,98462.65
2018-08-17T15:35:45.371Z,98460.50
2018-08-17T15:38:13.783Z,98459.77
2018-08-17T15:40:41.998Z,98470.11
2018-08-17T15:43:17.451Z,98465.75
2018-08-17T15:45:46.639Z,98463.31
2018-08-17T15:48:15.053Z,98463.02
2018-08-17T15:50:45.265Z,98460.88
2018-08-17T15:53:13.955Z,98459.23
2018-08-17T15:55:42.113Z,98457.56
2018-08-17T15:58:10.229Z,98457.84
2018-08-17T16:00:38.492Z,98453.42
2018-08-17T16:03:08.000Z,98462.95
2018-08-17T16:05:36.436Z,98463.41
2018-08-17T16:08:04.708Z,98469.03
2018-08-17T16:10:32.930Z,98468.11
2018-08-17T16:13:01.270Z,98472.19
2018-08-17T16:15:29.621Z,98465.73
2018-08-17T16:17:57.823Z,98462.48
2018-08-17T16:20:26.047Z,98466.19
2018-08-17T16:22:54.172Z,98468.00
2018-08-17T16:25:22.538Z,98466.55
2018-08-17T16:27:50.893Z,98458.81
2018-08-17T16:30:19.021Z,98461.72
2018-08-17T16:32:47.148Z,98463.31
2018-08-17T16:35:15.780Z,98462.11
2018-08-17T16:37:46.201Z,98468.29
2018-08-17T16:40:14.366Z,98476.02
2018-08-17T16:42:42.471Z,98481.65
2018-08-17T16:45:10.822Z,98481.58
2018-08-17T16:47:39.005Z,98479.88
2018-08-17T16:50:08.560Z,98488.11
2018-08-17T16:52:37.107Z,98483.66
2018-08-17T16:55:05.273Z,98484.13
2018-08-17T16:57:33.377Z,98497.11
2018-08-17T17:00:01.485Z,98516.84
2018-08-17T17:02:29.821Z,98518.94
2018-08-17T17:04:57.989Z,98525.77
2018-08-17T17:07:29.239Z,98521.81
2018-08-17T17:09:57.982Z,98527.30
2018-08-17T17:12:26.110Z,98532.25
2018-08-17T17:14:55.405Z,98528.73
2018-08-17T17:17:23.767Z,98530.32
2018-08-17T17:19:51.924Z,98533.45
2018-08-17T17:22:20.411Z,98538.25
2018-08-17T17:24:49.401Z,98534.16
2018-08-17T17:27:19.655Z,98544.28
2018-08-17T17:29:48.841Z,98548.55
2018-08-17T17:32:17.379Z,98542.14
2018-08-17T17:34:45.978Z,98547.90
2018-08-17T17:37:14.235Z,98558.91
2018-08-17T17:39:42.566Z,98562.06
2018-08-17T17:42:10.947Z,98565.25
2018-08-17T17:44:39.356Z,98567.70
2018-08-17T17:47:08.441Z,98582.61
2018-08-17T17:49:36.805Z,98587.42
2018-08-17T17:52:05.006Z,98589.96
2018-08-17T17:54:33.122Z,98593.58
2018-08-17T17:57:06.728Z,98601.71
2018-08-17T22:34:24.968Z,98977.27
2018-08-17T22:36:53.092Z,98981.28
2018-08-17T22:39:21.266Z,98981.80
2018-08-17T22:41:49.685Z,98988.26
2018-08-17T22:44:22.576Z,98986.50
2018-08-17T22:47:03.327Z,98992.44
2018-08-17T22:49:31.985Z,98996.09
2018-08-17T22:52:00.133Z,98997.02
2018-08-17T22:54:28.753Z,98997.32
2018-08-17T22:56:56.999Z,98993.96
2018-08-17T22:59:25.141Z,98994.57
2018-08-17T23:01:53.249Z,98998.61
2018-08-17T23:04:21.541Z,98988.03
2018-08-17T23:06:50.059Z,98991.02
2018-08-17T23:09:18.306Z,98998.69
2018-08-17T23:11:46.452Z,98998.83
2018-08-17T23:14:15.702Z,99003.83
2018-08-17T23:16:44.945Z,99000.14
2018-08-17T23:19:13.149Z,99006.89
2018-08-17T23:21:41.546Z,99012.23
2018-08-17T23:24:10.633Z,99002.67
2018-08-17T23:26:38.745Z,99014.80
2018-08-17T23:29:07.509Z,99013.83
2018-08-17T23:31:35.802Z,99021.00
2018-08-17T23:34:03.937Z,99016.34
2018-08-17T23:36:32.088Z,99013.70
2018-08-17T23:39:00.241Z,99016.99
2018-08-17T23:41:28.384Z,99017.69
2018-08-17T23:43:56.576Z,99008.16
2018-08-17T23:46:24.707Z,99007.30
2018-08-17T23:48:52.936Z,99001.83
2018-08-17T23:51:21.201Z,99008.23
2018-08-17T23:53:49.321Z,99008.89
2018-08-17T23:56:17.549Z,99007.89
2018-08-17T23:58:45.655Z,99000.41
